sensor_id;sensor_type;location;lat;lon;timestamp;P1;durP1;ratioP1;P2;durP2;ratioP2
55815;SDS011;41744;52.404;16.942;2023-07-13T00:00:29;2.22;;;1.33;;
55815;SDS011;41744;52.404;16.942;2023-07-13T00:02:57;2.63;;;1.70;;
55815;SDS011;41744;52.404;16.942;2023-07-13T00:05:23;3.17;;;1.63;;
55815;SDS011;41744;52.404;16.942;2023-07-13T00:07:50;6.32;;;1.60;;
55815;SDS011;41744;52.404;16.942;2023-07-13T00:10:16;2.08;;;1.52;;
55815;SDS011;41744;52.404;16.942;2023-07-13T00:12:42;2.97;;;1.50;;
55815;SDS011;41744;52.404;16.942;2023-07-13T00:15:13;1.95;;;1.40;;
55815;SDS011;41744;52.404;16.942;2023-07-13T00:17:41;2.53;;;1.50;;
55815;SDS011;41744;52.404;16.942;2023-07-13T00:20:09;4.35;;;1.52;;
55815;SDS011;41744;52.404;16.942;2023-07-13T00:22:36;2.95;;;1.63;;
55815;SDS011;41744;52.404;16.942;2023-07-13T00:25:02;2.80;;;1.50;;
55815;SDS011;41744;52.404;16.942;2023-07-13T00:27:28;9.18;;;1.67;;
55815;SDS011;41744;52.404;16.942;2023-07-13T00:29:57;5.22;;;1.75;;
55815;SDS011;41744;52.404;16.942;2023-07-13T00:32:23;2.75;;;1.73;;
55815;SDS011;41744;52.404;16.942;2023-07-13T00:34:52;2.67;;;1.60;;
55815;SDS011;41744;52.404;16.942;2023-07-13T00:37:18;5.30;;;1.83;;
55815;SDS011;41744;52.404;16.942;2023-07-13T00:39:45;2.60;;;1.48;;
55815;SDS011;41744;52.404;16.942;2023-07-13T00:42:11;2.72;;;1.45;;
55815;SDS011;41744;52.404;16.942;2023-07-13T00:44:37;2.88;;;1.70;;
55815;SDS011;41744;52.404;16.942;2023-07-13T00:47:05;2.78;;;1.60;;
55815;SDS011;41744;52.404;16.942;2023-07-13T00:49:31;2.00;;;1.60;;
55815;SDS011;41744;52.404;16.942;2023-07-13T00:52:01;3.75;;;1.40;;
55815;SDS011;41744;52.404;16.942;2023-07-13T00:54:28;8.82;;;1.67;;
55815;SDS011;41744;52.404;16.942;2023-07-13T00:56:55;3.55;;;1.67;;
55815;SDS011;41744;52.404;16.942;2023-07-13T00:59:23;2.28;;;1.58;;
55815;SDS011;41744;52.404;16.942;2023-07-13T01:01:49;3.75;;;1.60;;
55815;SDS011;41744;52.404;16.942;2023-07-13T01:04:16;2.55;;;1.65;;
55815;SDS011;41744;52.404;16.942;2023-07-13T01:06:42;3.75;;;1.83;;
55815;SDS011;41744;52.404;16.942;2023-07-13T01:09:09;6.50;;;1.60;;
55815;SDS011;41744;52.404;16.942;2023-07-13T01:11:35;3.83;;;1.90;;
55815;SDS011;41744;52.404;16.942;2023-07-13T01:14:02;1.85;;;1.35;;
55815;SDS011;41744;52.404;16.942;2023-07-13T01:16:29;3.33;;;1.42;;
55815;SDS011;41744;52.404;16.942;2023-07-13T01:18:56;2.78;;;1.50;;
55815;SDS011;41744;52.404;16.942;2023-07-13T01:21:27;2.90;;;1.58;;
55815;SDS011;41744;52.404;16.942;2023-07-13T01:23:54;3.00;;;1.60;;
55815;SDS011;41744;52.404;16.942;2023-07-13T01:26:20;6.65;;;1.40;;
55815;SDS011;41744;52.404;16.942;2023-07-13T01:28:46;2.85;;;1.48;;
55815;SDS011;41744;52.404;16.942;2023-07-13T01:31:12;2.03;;;1.35;;
55815;SDS011;41744;52.404;16.942;2023-07-13T01:33:39;3.80;;;1.48;;
55815;SDS011;41744;52.404;16.942;2023-07-13T01:36:06;4.57;;;1.50;;
55815;SDS011;41744;52.404;16.942;2023-07-13T01:38:32;2.97;;;1.70;;
55815;SDS011;41744;52.404;16.942;2023-07-13T01:40:58;2.88;;;1.40;;
55815;SDS011;41744;52.404;16.942;2023-07-13T01:43:24;1.83;;;1.38;;
55815;SDS011;41744;52.404;16.942;2023-07-13T01:45:50;3.40;;;1.70;;
55815;SDS011;41744;52.404;16.942;2023-07-13T01:48:16;4.03;;;1.50;;
55815;SDS011;41744;52.404;16.942;2023-07-13T01:50:43;2.38;;;1.55;;
55815;SDS011;41744;52.404;16.942;2023-07-13T01:53:09;3.90;;;1.50;;
55815;SDS011;41744;52.404;16.942;2023-07-13T01:55:35;3.22;;;1.55;;
55815;SDS011;41744;52.404;16.942;2023-07-13T01:58:02;3.80;;;1.67;;
55815;SDS011;41744;52.404;16.942;2023-07-13T02:00:28;3.42;;;1.65;;
55815;SDS011;41744;52.404;16.942;2023-07-13T02:02:54;2.08;;;1.55;;
55815;SDS011;41744;52.404;16.942;2023-07-13T02:05:20;3.50;;;1.70;;
55815;SDS011;41744;52.404;16.942;2023-07-13T02:07:47;2.70;;;1.52;;
55815;SDS011;41744;52.404;16.942;2023-07-13T02:10:14;2.20;;;1.67;;
55815;SDS011;41744;52.404;16.942;2023-07-13T02:12:40;3.42;;;1.52;;
55815;SDS011;41744;52.404;16.942;2023-07-13T02:15:07;2.35;;;1.50;;
55815;SDS011;41744;52.404;16.942;2023-07-13T02:17:34;2.28;;;1.83;;
55815;SDS011;41744;52.404;16.942;2023-07-13T02:20:00;2.63;;;1.80;;
55815;SDS011;41744;52.404;16.942;2023-07-13T02:22:26;2.53;;;1.70;;
55815;SDS011;41744;52.404;16.942;2023-07-13T02:24:52;2.60;;;1.65;;
55815;SDS011;41744;52.404;16.942;2023-07-13T02:27:18;2.08;;;1.75;;
55815;SDS011;41744;52.404;16.942;2023-07-13T02:29:44;2.78;;;1.70;;
55815;SDS011;41744;52.404;16.942;2023-07-13T02:32:11;3.83;;;1.85;;
55815;SDS011;41744;52.404;16.942;2023-07-13T02:34:37;3.28;;;2.05;;
55815;SDS011;41744;52.404;16.942;2023-07-13T02:37:03;3.58;;;2.10;;
55815;SDS011;41744;52.404;16.942;2023-07-13T02:39:29;2.97;;;2.20;;
55815;SDS011;41744;52.404;16.942;2023-07-13T02:41:57;2.33;;;1.90;;
55815;SDS011;41744;52.404;16.942;2023-07-13T02:44:23;3.08;;;2.13;;
55815;SDS011;41744;52.404;16.942;2023-07-13T02:46:49;5.80;;;2.38;;
55815;SDS011;41744;52.404;16.942;2023-07-13T02:49:15;5.43;;;2.40;;
55815;SDS011;41744;52.404;16.942;2023-07-13T02:51:42;3.33;;;2.38;;
55815;SDS011;41744;52.404;16.942;2023-07-13T02:54:08;6.28;;;2.50;;
55815;SDS011;41744;52.404;16.942;2023-07-13T02:56:34;4.00;;;2.13;;
55815;SDS011;41744;52.404;16.942;2023-07-13T02:59:00;2.95;;;2.22;;
55815;SDS011;41744;52.404;16.942;2023-07-13T03:01:27;3.40;;;2.17;;
55815;SDS011;41744;52.404;16.942;2023-07-13T03:03:53;5.75;;;2.63;;
55815;SDS011;41744;52.404;16.942;2023-07-13T03:06:20;4.75;;;2.65;;
55815;SDS011;41744;52.404;16.942;2023-07-13T03:08:47;6.20;;;2.50;;
55815;SDS011;41744;52.404;16.942;2023-07-13T03:11:18;4.68;;;2.50;;
55815;SDS011;41744;52.404;16.942;2023-07-13T03:13:44;4.05;;;2.55;;
55815;SDS011;41744;52.404;16.942;2023-07-13T03:16:11;6.13;;;2.72;;
55815;SDS011;41744;52.404;16.942;2023-07-13T03:18:37;7.00;;;2.67;;
55815;SDS011;41744;52.404;16.942;2023-07-13T03:21:04;4.35;;;2.75;;
55815;SDS011;41744;52.404;16.942;2023-07-13T03:23:30;5.97;;;3.05;;
55815;SDS011;41744;52.404;16.942;2023-07-13T03:26:07;5.30;;;2.60;;
55815;SDS011;41744;52.404;16.942;2023-07-13T03:28:33;5.25;;;2.13;;
55815;SDS011;41744;52.404;16.942;2023-07-13T03:31:00;5.55;;;2.38;;
55815;SDS011;41744;52.404;16.942;2023-07-13T03:33:26;5.30;;;3.10;;
55815;SDS011;41744;52.404;16.942;2023-07-13T03:35:52;3.55;;;2.40;;
55815;SDS011;41744;52.404;16.942;2023-07-13T03:38:18;10.15;;;3.25;;
55815;SDS011;41744;52.404;16.942;2023-07-13T03:40:44;3.97;;;3.05;;
55815;SDS011;41744;52.404;16.942;2023-07-13T03:43:10;5.25;;;3.40;;
55815;SDS011;41744;52.404;16.942;2023-07-13T03:45:39;4.47;;;3.20;;
55815;SDS011;41744;52.404;16.942;2023-07-13T03:48:06;4.03;;;2.90;;
55815;SDS011;41744;52.404;16.942;2023-07-13T03:50:32;6.65;;;3.42;;
55815;SDS011;41744;52.404;16.942;2023-07-13T03:52:59;4.50;;;3.05;;
55815;SDS011;41744;52.404;16.942;2023-07-13T03:55:25;6.28;;;3.72;;
55815;SDS011;41744;52.404;16.942;2023-07-13T03:57:54;8.48;;;3.67;;
55815;SDS011;41744;52.404;16.942;2023-07-13T04:00:23;4.68;;;3.40;;
55815;SDS011;41744;52.404;16.942;2023-07-13T04:02:49;6.53;;;3.67;;
55815;SDS011;41744;52.404;16.942;2023-07-13T04:05:15;7.00;;;4.15;;
55815;SDS011;41744;52.404;16.942;2023-07-13T04:07:41;5.75;;;3.78;;
55815;SDS011;41744;52.404;16.942;2023-07-13T04:10:08;6.90;;;4.05;;
55815;SDS011;41744;52.404;16.942;2023-07-13T04:12:34;9.82;;;4.00;;
55815;SDS011;41744;52.404;16.942;2023-07-13T04:15:00;6.82;;;4.03;;
55815;SDS011;41744;52.404;16.942;2023-07-13T04:17:26;7.95;;;4.13;;
55815;SDS011;41744;52.404;16.942;2023-07-13T04:19:52;7.03;;;4.00;;
55815;SDS011;41744;52.404;16.942;2023-07-13T04:22:18;6.63;;;4.03;;
55815;SDS011;41744;52.404;16.942;2023-07-13T04:24:44;6.00;;;3.90;;
55815;SDS011;41744;52.404;16.942;2023-07-13T04:27:10;6.03;;;3.92;;
55815;SDS011;41744;52.404;16.942;2023-07-13T04:29:36;7.38;;;4.28;;
55815;SDS011;41744;52.404;16.942;2023-07-13T04:32:02;5.97;;;4.20;;
55815;SDS011;41744;52.404;16.942;2023-07-13T04:34:28;7.70;;;4.40;;
55815;SDS011;41744;52.404;16.942;2023-07-13T04:36:54;11.38;;;4.13;;
55815;SDS011;41744;52.404;16.942;2023-07-13T04:39:20;7.05;;;4.10;;
55815;SDS011;41744;52.404;16.942;2023-07-13T04:41:46;8.98;;;4.57;;
55815;SDS011;41744;52.404;16.942;2023-07-13T04:44:12;10.10;;;4.68;;
55815;SDS011;41744;52.404;16.942;2023-07-13T04:46:38;9.93;;;4.50;;
55815;SDS011;41744;52.404;16.942;2023-07-13T04:49:04;8.27;;;4.43;;
55815;SDS011;41744;52.404;16.942;2023-07-13T04:51:31;6.10;;;4.32;;
55815;SDS011;41744;52.404;16.942;2023-07-13T04:53:57;7.00;;;4.22;;
55815;SDS011;41744;52.404;16.942;2023-07-13T04:56:23;10.10;;;4.72;;
55815;SDS011;41744;52.404;16.942;2023-07-13T04:58:49;7.43;;;4.43;;
55815;SDS011;41744;52.404;16.942;2023-07-13T05:01:15;7.05;;;4.60;;
55815;SDS011;41744;52.404;16.942;2023-07-13T05:03:41;8.55;;;4.75;;
55815;SDS011;41744;52.404;16.942;2023-07-13T05:06:07;8.07;;;5.22;;
55815;SDS011;41744;52.404;16.942;2023-07-13T05:08:36;6.93;;;5.07;;
55815;SDS011;41744;52.404;16.942;2023-07-13T05:11:03;8.30;;;5.20;;
55815;SDS011;41744;52.404;16.942;2023-07-13T05:13:29;9.48;;;5.28;;
55815;SDS011;41744;52.404;16.942;2023-07-13T05:15:59;9.38;;;5.13;;
55815;SDS011;41744;52.404;16.942;2023-07-13T05:18:26;10.48;;;5.40;;
55815;SDS011;41744;52.404;16.942;2023-07-13T05:20:56;8.68;;;5.22;;
55815;SDS011;41744;52.404;16.942;2023-07-13T05:23:22;9.02;;;5.43;;
55815;SDS011;41744;52.404;16.942;2023-07-13T05:25:48;10.15;;;6.15;;
55815;SDS011;41744;52.404;16.942;2023-07-13T05:28:14;11.00;;;5.93;;
55815;SDS011;41744;52.404;16.942;2023-07-13T05:30:44;8.18;;;5.63;;
55815;SDS011;41744;52.404;16.942;2023-07-13T05:33:11;12.13;;;5.68;;
55815;SDS011;41744;52.404;16.942;2023-07-13T05:35:37;9.68;;;5.53;;
55815;SDS011;41744;52.404;16.942;2023-07-13T05:38:03;15.32;;;5.72;;
55815;SDS011;41744;52.404;16.942;2023-07-13T05:40:29;8.10;;;5.22;;
55815;SDS011;41744;52.404;16.942;2023-07-13T05:42:55;11.50;;;5.80;;
55815;SDS011;41744;52.404;16.942;2023-07-13T05:45:21;10.30;;;5.75;;
55815;SDS011;41744;52.404;16.942;2023-07-13T05:47:47;9.27;;;5.60;;
55815;SDS011;41744;52.404;16.942;2023-07-13T05:50:13;10.82;;;5.45;;
55815;SDS011;41744;52.404;16.942;2023-07-13T05:52:39;9.05;;;5.53;;
55815;SDS011;41744;52.404;16.942;2023-07-13T05:55:06;12.13;;;6.00;;
55815;SDS011;41744;52.404;16.942;2023-07-13T05:57:32;9.63;;;5.47;;
55815;SDS011;41744;52.404;16.942;2023-07-13T05:59:58;11.55;;;5.10;;
55815;SDS011;41744;52.404;16.942;2023-07-13T06:02:24;13.45;;;5.15;;
55815;SDS011;41744;52.404;16.942;2023-07-13T06:04:51;12.23;;;5.45;;
55815;SDS011;41744;52.404;16.942;2023-07-13T06:07:17;9.00;;;5.30;;
55815;SDS011;41744;52.404;16.942;2023-07-13T06:09:43;9.43;;;5.25;;
55815;SDS011;41744;52.404;16.942;2023-07-13T06:12:09;9.88;;;5.03;;
55815;SDS011;41744;52.404;16.942;2023-07-13T06:14:35;9.43;;;4.60;;
55815;SDS011;41744;52.404;16.942;2023-07-13T06:17:01;7.38;;;5.25;;
55815;SDS011;41744;52.404;16.942;2023-07-13T06:19:28;11.95;;;5.30;;
55815;SDS011;41744;52.404;16.942;2023-07-13T06:21:54;7.88;;;5.20;;
55815;SDS011;41744;52.404;16.942;2023-07-13T06:24:21;9.82;;;4.80;;
55815;SDS011;41744;52.404;16.942;2023-07-13T06:26:47;8.05;;;5.00;;
55815;SDS011;41744;52.404;16.942;2023-07-13T06:29:13;11.00;;;5.10;;
55815;SDS011;41744;52.404;16.942;2023-07-13T06:31:39;9.05;;;5.30;;
55815;SDS011;41744;52.404;16.942;2023-07-13T06:34:05;12.75;;;5.03;;
55815;SDS011;41744;52.404;16.942;2023-07-13T06:36:32;10.90;;;5.15;;
55815;SDS011;41744;52.404;16.942;2023-07-13T06:38:58;11.90;;;5.20;;
55815;SDS011;41744;52.404;16.942;2023-07-13T06:41:24;8.13;;;4.85;;
55815;SDS011;41744;52.404;16.942;2023-07-13T06:43:53;11.18;;;5.35;;
55815;SDS011;41744;52.404;16.942;2023-07-13T06:46:22;11.20;;;5.15;;
55815;SDS011;41744;52.404;16.942;2023-07-13T06:48:48;13.23;;;5.68;;
55815;SDS011;41744;52.404;16.942;2023-07-13T06:51:14;7.63;;;4.60;;
55815;SDS011;41744;52.404;16.942;2023-07-13T06:53:40;11.43;;;5.38;;
55815;SDS011;41744;52.404;16.942;2023-07-13T06:56:08;8.77;;;5.22;;
55815;SDS011;41744;52.404;16.942;2023-07-13T06:58:35;11.65;;;5.07;;
55815;SDS011;41744;52.404;16.942;2023-07-13T07:01:01;14.00;;;5.63;;
55815;SDS011;41744;52.404;16.942;2023-07-13T07:03:27;16.02;;;5.50;;
55815;SDS011;41744;52.404;16.942;2023-07-13T07:05:53;11.25;;;5.13;;
55815;SDS011;41744;52.404;16.942;2023-07-13T07:08:20;13.07;;;5.07;;
55815;SDS011;41744;52.404;16.942;2023-07-13T07:10:46;11.80;;;5.50;;
55815;SDS011;41744;52.404;16.942;2023-07-13T07:13:12;8.85;;;5.18;;
55815;SDS011;41744;52.404;16.942;2023-07-13T07:15:38;11.65;;;5.05;;
55815;SDS011;41744;52.404;16.942;2023-07-13T07:18:04;11.07;;;5.15;;
55815;SDS011;41744;52.404;16.942;2023-07-13T07:20:30;12.50;;;5.13;;
55815;SDS011;41744;52.404;16.942;2023-07-13T07:22:57;11.85;;;5.65;;
55815;SDS011;41744;52.404;16.942;2023-07-13T07:25:23;10.00;;;6.20;;
55815;SDS011;41744;52.404;16.942;2023-07-13T07:27:49;11.52;;;5.28;;
55815;SDS011;41744;52.404;16.942;2023-07-13T07:30:15;12.02;;;5.22;;
55815;SDS011;41744;52.404;16.942;2023-07-13T07:32:41;10.55;;;5.40;;
55815;SDS011;41744;52.404;16.942;2023-07-13T07:35:08;9.07;;;4.70;;
55815;SDS011;41744;52.404;16.942;2023-07-13T07:37:34;8.40;;;4.60;;
55815;SDS011;41744;52.404;16.942;2023-07-13T07:40:00;8.45;;;4.88;;
55815;SDS011;41744;52.404;16.942;2023-07-13T07:42:26;7.55;;;4.50;;
55815;SDS011;41744;52.404;16.942;2023-07-13T07:44:52;9.57;;;4.55;;
55815;SDS011;41744;52.404;16.942;2023-07-13T07:47:18;8.68;;;4.20;;
55815;SDS011;41744;52.404;16.942;2023-07-13T07:49:44;8.02;;;4.03;;
55815;SDS011;41744;52.404;16.942;2023-07-13T07:52:10;10.13;;;4.20;;
55815;SDS011;41744;52.404;16.942;2023-07-13T07:54:36;8.32;;;4.15;;
55815;SDS011;41744;52.404;16.942;2023-07-13T07:57:02;8.65;;;3.95;;
55815;SDS011;41744;52.404;16.942;2023-07-13T07:59:28;11.25;;;4.30;;
55815;SDS011;41744;52.404;16.942;2023-07-13T08:01:55;11.65;;;3.70;;
55815;SDS011;41744;52.404;16.942;2023-07-13T08:04:21;8.05;;;3.90;;
55815;SDS011;41744;52.404;16.942;2023-07-13T08:06:47;5.88;;;3.90;;
55815;SDS011;41744;52.404;16.942;2023-07-13T08:09:13;7.65;;;3.80;;
55815;SDS011;41744;52.404;16.942;2023-07-13T08:11:39;9.93;;;3.85;;
55815;SDS011;41744;52.404;16.942;2023-07-13T08:14:05;6.85;;;3.65;;
55815;SDS011;41744;52.404;16.942;2023-07-13T08:16:31;6.97;;;3.80;;
55815;SDS011;41744;52.404;16.942;2023-07-13T08:18:57;7.85;;;3.70;;
55815;SDS011;41744;52.404;16.942;2023-07-13T08:21:23;7.47;;;4.10;;
55815;SDS011;41744;52.404;16.942;2023-07-13T08:23:49;10.40;;;4.20;;
55815;SDS011;41744;52.404;16.942;2023-07-13T08:26:15;9.25;;;3.83;;
55815;SDS011;41744;52.404;16.942;2023-07-13T08:28:42;8.65;;;4.10;;
55815;SDS011;41744;52.404;16.942;2023-07-13T08:31:08;7.85;;;3.70;;
55815;SDS011;41744;52.404;16.942;2023-07-13T08:33:35;9.25;;;3.60;;
55815;SDS011;41744;52.404;16.942;2023-07-13T08:36:03;7.00;;;3.63;;
55815;SDS011;41744;52.404;16.942;2023-07-13T08:38:30;10.52;;;4.40;;
55815;SDS011;41744;52.404;16.942;2023-07-13T08:40:56;7.93;;;4.03;;
55815;SDS011;41744;52.404;16.942;2023-07-13T08:43:25;7.28;;;3.80;;
55815;SDS011;41744;52.404;16.942;2023-07-13T08:45:53;7.25;;;4.07;;
55815;SDS011;41744;52.404;16.942;2023-07-13T08:51:27;6.75;;;4.00;;
55815;SDS011;41744;52.404;16.942;2023-07-13T08:53:48;9.98;;;4.28;;
55815;SDS011;41744;52.404;16.942;2023-07-13T08:56:24;10.10;;;4.25;;
55815;SDS011;41744;52.404;16.942;2023-07-13T08:58:53;10.02;;;4.00;;
55815;SDS011;41744;52.404;16.942;2023-07-13T09:01:23;8.40;;;3.88;;
55815;SDS011;41744;52.404;16.942;2023-07-13T09:04:03;9.02;;;4.00;;
55815;SDS011;41744;52.404;16.942;2023-07-13T09:06:40;8.65;;;4.25;;
55815;SDS011;41744;52.404;16.942;2023-07-13T09:09:20;7.38;;;4.53;;
55815;SDS011;41744;52.404;16.942;2023-07-13T09:14:42;7.32;;;3.78;;
55815;SDS011;41744;52.404;16.942;2023-07-13T09:17:12;6.18;;;4.07;;
55815;SDS011;41744;52.404;16.942;2023-07-13T09:19:40;9.80;;;4.50;;
55815;SDS011;41744;52.404;16.942;2023-07-13T09:22:09;7.68;;;4.20;;
55815;SDS011;41744;52.404;16.942;2023-07-13T09:27:29;9.43;;;4.03;;
55815;SDS011;41744;52.404;16.942;2023-07-13T09:30:04;9.73;;;4.65;;
55815;SDS011;41744;52.404;16.942;2023-07-13T09:32:37;8.38;;;4.43;;
55815;SDS011;41744;52.404;16.942;2023-07-13T09:35:07;6.18;;;4.13;;
55815;SDS011;41744;52.404;16.942;2023-07-13T09:37:36;6.93;;;4.13;;
55815;SDS011;41744;52.404;16.942;2023-07-13T09:40:03;5.80;;;3.95;;
55815;SDS011;41744;52.404;16.942;2023-07-13T09:42:30;11.38;;;4.28;;
55815;SDS011;41744;52.404;16.942;2023-07-13T09:44:58;6.93;;;3.85;;
55815;SDS011;41744;52.404;16.942;2023-07-13T09:47:28;6.35;;;3.65;;
55815;SDS011;41744;52.404;16.942;2023-07-13T09:50:14;9.57;;;4.00;;
55815;SDS011;41744;52.404;16.942;2023-07-13T09:57:55;9.55;;;4.43;;
55815;SDS011;41744;52.404;16.942;2023-07-13T10:00:28;9.10;;;4.30;;
55815;SDS011;41744;52.404;16.942;2023-07-13T10:03:02;11.25;;;4.43;;
55815;SDS011;41744;52.404;16.942;2023-07-13T10:05:36;8.18;;;3.95;;
55815;SDS011;41744;52.404;16.942;2023-07-13T10:08:03;7.25;;;4.28;;
55815;SDS011;41744;52.404;16.942;2023-07-13T10:10:32;8.18;;;3.78;;
55815;SDS011;41744;52.404;16.942;2023-07-13T10:13:00;10.00;;;3.60;;
55815;SDS011;41744;52.404;16.942;2023-07-13T10:15:29;7.03;;;3.83;;
55815;SDS011;41744;52.404;16.942;2023-07-13T10:17:56;7.32;;;3.90;;
55815;SDS011;41744;52.404;16.942;2023-07-13T10:20:24;5.57;;;3.38;;
55815;SDS011;41744;52.404;16.942;2023-07-13T10:23:03;5.30;;;3.00;;
55815;SDS011;41744;52.404;16.942;2023-07-13T10:25:31;5.78;;;3.20;;
55815;SDS011;41744;52.404;16.942;2023-07-13T10:28:24;8.77;;;3.40;;
55815;SDS011;41744;52.404;16.942;2023-07-13T10:30:44;8.20;;;3.60;;
55815;SDS011;41744;52.404;16.942;2023-07-13T10:33:12;5.55;;;3.65;;
55815;SDS011;41744;52.404;16.942;2023-07-13T10:35:39;8.32;;;3.95;;
55815;SDS011;41744;52.404;16.942;2023-07-13T10:38:07;6.88;;;3.60;;
55815;SDS011;41744;52.404;16.942;2023-07-13T10:40:40;12.52;;;4.32;;
55815;SDS011;41744;52.404;16.942;2023-07-13T10:43:15;8.95;;;3.50;;
55815;SDS011;41744;52.404;16.942;2023-07-13T10:45:43;9.02;;;3.83;;
55815;SDS011;41744;52.404;16.942;2023-07-13T10:48:11;9.32;;;4.03;;
55815;SDS011;41744;52.404;16.942;2023-07-13T10:50:40;5.72;;;3.38;;
55815;SDS011;41744;52.404;16.942;2023-07-13T10:53:18;13.80;;;4.45;;
55815;SDS011;41744;52.404;16.942;2023-07-13T10:58:20;9.73;;;3.60;;
55815;SDS011;41744;52.404;16.942;2023-07-13T11:03:16;12.77;;;3.72;;
55815;SDS011;41744;52.404;16.942;2023-07-13T11:05:43;7.63;;;3.80;;
55815;SDS011;41744;52.404;16.942;2023-07-13T11:08:16;8.63;;;4.35;;
55815;SDS011;41744;52.404;16.942;2023-07-13T11:13:35;8.93;;;3.50;;
55815;SDS011;41744;52.404;16.942;2023-07-13T11:15:57;8.73;;;3.90;;
55815;SDS011;41744;52.404;16.942;2023-07-13T11:18:24;7.18;;;3.80;;
55815;SDS011;41744;52.404;16.942;2023-07-13T11:20:50;8.27;;;3.92;;
55815;SDS011;41744;52.404;16.942;2023-07-13T11:23:17;9.27;;;4.13;;
55815;SDS011;41744;52.404;16.942;2023-07-13T11:25:44;7.03;;;3.80;;
55815;SDS011;41744;52.404;16.942;2023-07-13T11:30:38;8.23;;;3.97;;
55815;SDS011;41744;52.404;16.942;2023-07-13T11:33:14;13.63;;;4.47;;
55815;SDS011;41744;52.404;16.942;2023-07-13T11:35:41;7.43;;;4.00;;
55815;SDS011;41744;52.404;16.942;2023-07-13T11:38:13;6.30;;;4.03;;
55815;SDS011;41744;52.404;16.942;2023-07-13T11:40:40;5.22;;;3.50;;
55815;SDS011;41744;52.404;16.942;2023-07-13T11:43:07;6.75;;;3.05;;
55815;SDS011;41744;52.404;16.942;2023-07-13T11:45:33;6.90;;;3.33;;
55815;SDS011;41744;52.404;16.942;2023-07-13T11:47:59;6.97;;;2.80;;
55815;SDS011;41744;52.404;16.942;2023-07-13T11:50:26;6.55;;;3.15;;
55815;SDS011;41744;52.404;16.942;2023-07-13T11:52:53;5.97;;;3.13;;
55815;SDS011;41744;52.404;16.942;2023-07-13T11:55:21;8.82;;;3.03;;
55815;SDS011;41744;52.404;16.942;2023-07-13T11:57:54;6.32;;;3.10;;
55815;SDS011;41744;52.404;16.942;2023-07-13T12:00:25;5.10;;;2.95;;
55815;SDS011;41744;52.404;16.942;2023-07-13T12:02:53;6.43;;;2.92;;
55815;SDS011;41744;52.404;16.942;2023-07-13T12:05:20;7.55;;;3.38;;
55815;SDS011;41744;52.404;16.942;2023-07-13T12:07:46;6.97;;;2.75;;
55815;SDS011;41744;52.404;16.942;2023-07-13T12:12:46;5.85;;;2.85;;
55815;SDS011;41744;52.404;16.942;2023-07-13T12:15:13;5.78;;;2.50;;
55815;SDS011;41744;52.404;16.942;2023-07-13T12:17:39;6.65;;;2.35;;
55815;SDS011;41744;52.404;16.942;2023-07-13T12:20:17;7.03;;;2.40;;
55815;SDS011;41744;52.404;16.942;2023-07-13T12:22:48;4.88;;;2.42;;
55815;SDS011;41744;52.404;16.942;2023-07-13T12:25:14;2.70;;;2.00;;
55815;SDS011;41744;52.404;16.942;2023-07-13T12:27:40;3.38;;;1.90;;
55815;SDS011;41744;52.404;16.942;2023-07-13T12:32:56;3.70;;;2.20;;
55815;SDS011;41744;52.404;16.942;2023-07-13T12:35:23;3.50;;;2.20;;
55815;SDS011;41744;52.404;16.942;2023-07-13T12:37:50;4.93;;;2.28;;
55815;SDS011;41744;52.404;16.942;2023-07-13T12:40:20;7.95;;;2.55;;
55815;SDS011;41744;52.404;16.942;2023-07-13T12:42:48;3.20;;;2.20;;
55815;SDS011;41744;52.404;16.942;2023-07-13T12:48:14;6.13;;;2.00;;
55815;SDS011;41744;52.404;16.942;2023-07-13T12:50:41;7.40;;;2.78;;
55815;SDS011;41744;52.404;16.942;2023-07-13T12:53:15;6.63;;;2.25;;
55815;SDS011;41744;52.404;16.942;2023-07-13T12:55:46;10.52;;;2.30;;
55815;SDS011;41744;52.404;16.942;2023-07-13T13:00:58;5.68;;;2.20;;
55815;SDS011;41744;52.404;16.942;2023-07-13T13:03:41;4.75;;;2.00;;
55815;SDS011;41744;52.404;16.942;2023-07-13T13:08:49;7.15;;;2.30;;
55815;SDS011;41744;52.404;16.942;2023-07-13T13:11:16;14.25;;;2.35;;
55815;SDS011;41744;52.404;16.942;2023-07-13T13:13:42;10.68;;;2.25;;
55815;SDS011;41744;52.404;16.942;2023-07-13T13:16:29;11.32;;;2.67;;
55815;SDS011;41744;52.404;16.942;2023-07-13T13:18:57;10.25;;;2.38;;
55815;SDS011;41744;52.404;16.942;2023-07-13T13:21:25;8.07;;;2.25;;
55815;SDS011;41744;52.404;16.942;2023-07-13T13:23:51;11.52;;;2.05;;
55815;SDS011;41744;52.404;16.942;2023-07-13T13:26:18;8.30;;;1.85;;
55815;SDS011;41744;52.404;16.942;2023-07-13T13:28:44;6.93;;;2.10;;
55815;SDS011;41744;52.404;16.942;2023-07-13T13:31:12;4.82;;;1.85;;
55815;SDS011;41744;52.404;16.942;2023-07-13T13:33:39;5.60;;;2.08;;
55815;SDS011;41744;52.404;16.942;2023-07-13T13:36:14;21.83;;;9.38;;
55815;SDS011;41744;52.404;16.942;2023-07-13T13:38:40;25.17;;;8.20;;
55815;SDS011;41744;52.404;16.942;2023-07-13T13:41:09;22.27;;;8.75;;
55815;SDS011;41744;52.404;16.942;2023-07-13T13:43:35;15.10;;;5.47;;
55815;SDS011;41744;52.404;16.942;2023-07-13T13:46:01;9.68;;;3.42;;
55815;SDS011;41744;52.404;16.942;2023-07-13T13:48:31;8.65;;;3.33;;
55815;SDS011;41744;52.404;16.942;2023-07-13T13:50:57;8.20;;;3.20;;
55815;SDS011;41744;52.404;16.942;2023-07-13T13:53:24;7.70;;;2.50;;
55815;SDS011;41744;52.404;16.942;2023-07-13T13:55:50;12.13;;;2.75;;
55815;SDS011;41744;52.404;16.942;2023-07-13T13:58:17;9.15;;;2.22;;
55815;SDS011;41744;52.404;16.942;2023-07-13T14:00:43;7.60;;;1.98;;
55815;SDS011;41744;52.404;16.942;2023-07-13T14:03:16;4.82;;;1.92;;
55815;SDS011;41744;52.404;16.942;2023-07-13T14:05:43;2.60;;;1.80;;
55815;SDS011;41744;52.404;16.942;2023-07-13T14:08:16;5.20;;;1.67;;
55815;SDS011;41744;52.404;16.942;2023-07-13T14:10:43;7.40;;;2.00;;
55815;SDS011;41744;52.404;16.942;2023-07-13T14:16:11;3.92;;;2.10;;
55815;SDS011;41744;52.404;16.942;2023-07-13T14:18:38;4.72;;;1.98;;
55815;SDS011;41744;52.404;16.942;2023-07-13T14:21:08;8.07;;;2.03;;
55815;SDS011;41744;52.404;16.942;2023-07-13T14:23:34;4.50;;;2.00;;
55815;SDS011;41744;52.404;16.942;2023-07-13T14:26:00;4.55;;;1.95;;
55815;SDS011;41744;52.404;16.942;2023-07-13T14:28:26;7.05;;;1.80;;
55815;SDS011;41744;52.404;16.942;2023-07-13T14:30:53;5.72;;;1.90;;
55815;SDS011;41744;52.404;16.942;2023-07-13T14:33:20;4.65;;;1.77;;
55815;SDS011;41744;52.404;16.942;2023-07-13T14:35:46;3.88;;;1.88;;
55815;SDS011;41744;52.404;16.942;2023-07-13T14:38:13;2.83;;;2.08;;
55815;SDS011;41744;52.404;16.942;2023-07-13T14:40:39;3.53;;;1.90;;
55815;SDS011;41744;52.404;16.942;2023-07-13T14:43:09;8.02;;;2.30;;
55815;SDS011;41744;52.404;16.942;2023-07-13T14:45:35;15.02;;;2.50;;
55815;SDS011;41744;52.404;16.942;2023-07-13T14:48:02;5.55;;;2.25;;
55815;SDS011;41744;52.404;16.942;2023-07-13T14:50:31;6.90;;;2.20;;
55815;SDS011;41744;52.404;16.942;2023-07-13T14:52:59;5.45;;;2.05;;
55815;SDS011;41744;52.404;16.942;2023-07-13T14:55:26;4.13;;;1.77;;
55815;SDS011;41744;52.404;16.942;2023-07-13T14:57:52;5.20;;;1.88;;
55815;SDS011;41744;52.404;16.942;2023-07-13T15:00:21;3.85;;;1.58;;
55815;SDS011;41744;52.404;16.942;2023-07-13T15:02:51;5.22;;;1.75;;
55815;SDS011;41744;52.404;16.942;2023-07-13T15:05:23;2.80;;;1.90;;
55815;SDS011;41744;52.404;16.942;2023-07-13T15:07:50;4.60;;;1.90;;
55815;SDS011;41744;52.404;16.942;2023-07-13T15:10:20;3.50;;;1.95;;
55815;SDS011;41744;52.404;16.942;2023-07-13T15:12:46;3.95;;;1.80;;
55815;SDS011;41744;52.404;16.942;2023-07-13T15:15:12;4.45;;;2.00;;